createdAt,value
2022-09-02T00:02:55.147Z,65.73
2022-09-02T00:07:57.859Z,67.38
2022-09-02T00:13:00.591Z,66.93
2022-09-02T00:18:15.521Z,67.70
2022-09-02T00:24:18.729Z,67.96
2022-09-02T00:30:09.050Z,66.04
2022-09-02T00:35:13.086Z,67.58
2022-09-02T00:40:17.222Z,66.78
2022-09-02T00:45:21.872Z,69.09
2022-09-02T00:50:33.398Z,67.92
2022-09-02T00:55:42.094Z,68.37
2022-09-02T01:00:47.504Z,69.35
2022-09-02T01:05:53.238Z,68.99
2022-09-02T01:10:56.837Z,72.33
2022-09-02T01:16:10.684Z,71.15
2022-09-02T01:21:16.212Z,70.65
2022-09-02T01:26:20.383Z,71.39
2022-09-02T01:31:23.153Z,68.64
2022-09-02T01:36:25.893Z,67.77
2022-09-02T01:41:30.027Z,67.84
2022-09-02T01:46:33.770Z,68.67
2022-09-02T01:51:39.944Z,67.98
2022-09-02T01:56:44.064Z,65.89
2022-09-02T02:01:46.956Z,67.53
2022-09-02T02:06:52.370Z,68.80
2022-09-02T02:11:57.837Z,66.83
2022-09-02T02:17:01.026Z,71.43
2022-09-02T02:22:04.394Z,68.04
2022-09-02T02:27:10.457Z,67.55
2022-09-02T02:32:16.271Z,67.49
2022-09-02T02:37:23.407Z,72.35
2022-09-02T02:42:29.622Z,69.66
2022-09-02T02:47:32.433Z,69.47
2022-09-02T02:52:35.411Z,67.89
2022-09-02T02:57:41.918Z,68.09
2022-09-02T03:02:44.953Z,68.16
2022-09-02T03:07:49.012Z,68.68
2022-09-02T03:12:55.652Z,71.55
2022-09-02T03:17:58.944Z,69.39
2022-09-02T03:23:03.758Z,72.85
2022-09-02T03:28:09.503Z,71.14
2022-09-02T03:33:13.070Z,72.20
2022-09-02T03:38:15.872Z,71.83
2022-09-02T03:43:21.292Z,72.57
2022-09-02T03:48:25.036Z,70.60
2022-09-02T03:53:28.776Z,70.36
2022-09-02T03:58:38.190Z,71.74
2022-09-02T04:03:41.705Z,70.22
2022-09-02T04:08:44.917Z,72.92
2022-09-02T04:13:51.678Z,73.73
2022-09-02T04:18:58.387Z,74.18
2022-09-02T04:24:05.718Z,73.64
2022-09-02T04:29:10.335Z,71.50
2022-09-02T04:34:13.428Z,71.28
2022-09-02T04:39:17.273Z,72.40
2022-09-02T04:44:21.380Z,71.79
2022-09-02T04:49:24.694Z,75.29
2022-09-02T04:54:29.835Z,72.49
2022-09-02T04:59:37.277Z,72.03
2022-09-02T05:04:43.933Z,71.87
2022-09-02T05:09:57.955Z,72.35
2022-09-02T05:15:03.134Z,75.00
2022-09-02T05:20:10.739Z,76.11
2022-09-02T05:25:14.529Z,72.53
2022-09-02T05:30:18.695Z,74.44
2022-09-02T05:35:35.592Z,71.51
2022-09-02T05:40:45.722Z,71.19
2022-09-02T05:45:50.508Z,73.69
2022-09-02T05:50:57.497Z,73.94
2022-09-02T05:56:05.449Z,72.15
2022-09-02T06:01:12.784Z,72.72
2022-09-02T06:06:16.095Z,73.35
2022-09-02T06:11:19.376Z,72.48
2022-09-02T06:16:26.257Z,74.13
2022-09-02T06:21:29.644Z,72.61
2022-09-02T06:26:34.461Z,72.18
2022-09-02T06:31:41.707Z,73.23
2022-09-02T06:36:46.797Z,77.08
2022-09-02T06:41:52.046Z,75.75
2022-09-02T06:47:00.430Z,77.39
2022-09-02T06:52:05.572Z,75.82
2022-09-02T06:57:11.800Z,75.66
2022-09-02T07:07:24.298Z,73.61
2022-09-02T07:12:29.802Z,72.65
2022-09-02T07:17:39.158Z,70.60
2022-09-02T07:22:46.609Z,70.68
2022-09-02T07:27:53.050Z,70.03
2022-09-02T07:32:57.671Z,69.50
2022-09-02T07:38:04.177Z,70.07
2022-09-02T07:43:10.621Z,70.13
2022-09-02T07:48:15.889Z,70.76
2022-09-02T07:53:20.283Z,70.27
2022-09-02T07:58:26.422Z,70.68
2022-09-02T08:03:31.188Z,70.81
2022-09-02T08:08:35.764Z,70.14
2022-09-02T08:13:42.156Z,69.31
2022-09-02T08:18:46.243Z,68.98
2022-09-02T08:23:50.509Z,69.14
2022-09-02T08:28:53.698Z,68.29
2022-09-02T08:33:59.238Z,68.52
2022-09-02T08:39:20.618Z,68.48
2022-09-02T08:44:25.320Z,67.41
2022-09-02T08:49:33.747Z,67.87
2022-09-02T08:54:45.083Z,67.85
2022-09-02T08:59:48.867Z,67.76
2022-09-02T09:05:09.396Z,68.21
2022-09-02T09:10:17.526Z,66.69
2022-09-02T09:15:26.329Z,66.50
2022-09-02T09:20:47.255Z,66.97
2022-09-02T09:25:53.331Z,66.08
2022-09-02T09:30:55.995Z,66.12
2022-09-02T09:36:00.004Z,65.23
2022-09-02T09:41:29.951Z,65.40
2022-09-02T09:46:33.187Z,64.81
2022-09-02T09:51:53.604Z,64.40
2022-09-02T09:57:16.225Z,63.66
2022-09-02T10:02:24.385Z,64.03
2022-09-02T10:07:38.428Z,60.51
2022-09-02T10:12:42.619Z,61.99
2022-09-02T10:17:53.353Z,60.25
2022-09-02T10:23:22.057Z,60.46
2022-09-02T10:28:38.682Z,58.11
2022-09-02T10:33:52.765Z,56.81
2022-09-02T10:39:09.413Z,56.33
2022-09-02T10:44:30.266Z,55.29
2022-09-02T10:49:55.163Z,54.59
2022-09-02T10:55:07.925Z,52.55
2022-09-02T11:00:16.255Z,53.63
2022-09-02T11:05:24.843Z,51.76
2022-09-02T11:10:32.492Z,48.80
2022-09-02T11:15:46.166Z,47.61
2022-09-02T11:21:05.639Z,47.80
2022-09-02T11:26:16.909Z,48.37
2022-09-02T11:31:25.387Z,48.34
2022-09-02T11:36:33.247Z,48.41
2022-09-02T11:41:50.695Z,47.90
2022-09-02T11:47:10.110Z,47.30
2022-09-02T11:52:39.606Z,48.02
2022-09-02T11:57:44.411Z,49.12
2022-09-02T12:02:54.529Z,51.34
2022-09-02T12:07:59.608Z,45.77
2022-09-02T12:13:08.113Z,44.24
2022-09-02T12:18:32.170Z,44.19
2022-09-02T12:24:10.210Z,43.21
2022-09-02T12:29:33.163Z,44.78
2022-09-02T12:34:56.667Z,44.35
2022-09-02T12:40:13.174Z,42.39
2022-09-02T12:45:29.265Z,43.06
2022-09-02T12:50:53.690Z,43.18
2022-09-02T12:56:01.326Z,41.74
2022-09-02T13:01:15.462Z,41.54
2022-09-02T13:06:28.128Z,44.21
2022-09-02T13:12:04.336Z,41.71
2022-09-02T13:17:36.748Z,41.67
2022-09-02T13:22:54.702Z,42.70
2022-09-02T13:28:15.772Z,41.18
2022-09-02T13:33:20.492Z,42.65
2022-09-02T13:38:25.776Z,42.87
2022-09-02T13:43:28.983Z,41.23
2022-09-02T13:48:34.979Z,39.49
2022-09-02T13:53:59.060Z,40.61
2022-09-02T13:59:02.906Z,39.10
2022-09-02T14:04:14.213Z,39.16
2022-09-02T14:09:22.878Z,41.58
2022-09-02T14:14:26.672Z,41.46
2022-09-02T14:19:30.687Z,41.54
2022-09-02T14:24:41.226Z,41.49
2022-09-02T14:29:45.772Z,42.62
2022-09-02T14:34:50.824Z,41.25
2022-09-02T14:40:06.972Z,42.16
2022-09-02T14:45:11.849Z,41.49
2022-09-02T14:50:21.731Z,41.38
2022-09-02T14:55:45.375Z,42.25
2022-09-02T15:00:53.987Z,41.41
2022-09-02T15:05:58.525Z,41.85
2022-09-02T15:11:05.540Z,42.29
2022-09-02T15:16:09.082Z,41.35
2022-09-02T15:21:13.308Z,43.34
2022-09-02T15:26:16.162Z,41.33
2022-09-02T15:31:18.928Z,41.96
2022-09-02T15:36:24.987Z,43.24
2022-09-02T15:41:28.857Z,42.21
2022-09-02T15:46:33.771Z,42.59
2022-09-02T15:51:39.045Z,42.07
2022-09-02T15:56:43.878Z,41.73
2022-09-02T16:01:48.391Z,42.52
2022-09-02T16:06:53.389Z,42.78
2022-09-02T16:11:56.758Z,42.89
2022-09-02T16:16:59.679Z,43.66
2022-09-02T16:22:04.148Z,42.26
2022-09-02T16:27:07.156Z,42.27
2022-09-02T16:32:27.404Z,42.65
2022-09-02T16:37:32.205Z,42.29
2022-09-02T16:42:38.075Z,42.01
2022-09-02T16:47:41.149Z,43.34
2022-09-02T16:52:45.269Z,43.49
2022-09-02T16:57:48.183Z,43.48
2022-09-02T17:02:51.020Z,43.42
2022-09-02T17:07:58.326Z,43.36
2022-09-02T17:13:01.760Z,44.70
2022-09-02T17:18:04.829Z,45.01
2022-09-02T17:23:11.940Z,44.46
2022-09-02T17:28:14.716Z,43.32
2022-09-02T17:33:17.527Z,43.69
2022-09-02T17:38:26.699Z,43.25
2022-09-02T17:43:31.357Z,43.56
2022-09-02T17:48:41.883Z,44.39
2022-09-02T17:53:58.694Z,45.34
2022-09-02T17:59:22.650Z,48.17
2022-09-02T18:04:38.411Z,46.93
2022-09-02T18:09:43.584Z,47.13
2022-09-02T18:14:53.780Z,47.54
2022-09-02T18:20:00.370Z,47.48
2022-09-02T18:25:16.351Z,47.88
2022-09-02T18:30:21.791Z,47.98
2022-09-02T18:35:32.714Z,48.10
2022-09-02T18:40:46.730Z,48.36
2022-09-02T18:45:51.416Z,47.92
2022-09-02T18:50:57.957Z,48.25
2022-09-02T18:56:08.392Z,48.26
2022-09-02T19:01:19.846Z,48.19
2022-09-02T19:06:24.485Z,48.48
2022-09-02T19:11:28.729Z,49.03
2022-09-02T19:16:36.877Z,48.40
2022-09-02T19:21:44.456Z,49.29
2022-09-02T19:26:49.091Z,48.83
2022-09-02T19:31:54.556Z,48.42
2022-09-02T19:36:57.467Z,48.73
2022-09-02T19:42:02.689Z,49.27
2022-09-02T19:47:50.200Z,48.94
2022-09-02T19:52:30.464Z,49.32
2022-09-02T19:57:36.650Z,49.16
2022-09-02T20:02:40.180Z,49.70
2022-09-02T20:07:43.150Z,50.38
2022-09-02T20:12:47.298Z,51.29
2022-09-02T20:17:50.326Z,52.16
2022-09-02T20:22:55.806Z,52.96
2022-09-02T20:28:14.199Z,53.42
2022-09-02T20:33:19.430Z,52.91
2022-09-02T20:38:44.577Z,53.77
2022-09-02T20:44:07.199Z,54.16
2022-09-02T20:49:22.328Z,55.35
2022-09-02T20:54:40.032Z,55.55
2022-09-02T20:59:59.297Z,55.57
2022-09-02T21:05:07.969Z,54.38
2022-09-02T21:10:16.733Z,54.29
2022-09-02T21:15:28.739Z,54.45
2022-09-02T21:20:43.930Z,54.43
2022-09-02T21:25:53.870Z,54.63
2022-09-02T21:31:04.805Z,54.45
2022-09-02T21:36:07.791Z,54.66
2022-09-02T21:41:29.905Z,54.90
2022-09-02T21:46:42.717Z,54.94
2022-09-02T21:52:02.262Z,54.54
2022-09-02T21:57:24.532Z,54.93
2022-09-02T22:02:38.821Z,54.68
2022-09-02T22:07:48.584Z,55.19
2022-09-02T22:12:52.844Z,55.19
2022-09-02T22:18:10.885Z,54.36
2022-09-02T22:23:23.450Z,54.67
2022-09-02T22:28:35.889Z,54.86
2022-09-02T22:33:48.948Z,55.04
2022-09-02T22:38:52.029Z,55.28
2022-09-02T22:44:03.567Z,55.50
2022-09-02T22:49:45.111Z,56.20
2022-09-02T22:54:48.571Z,56.07
2022-09-02T23:00:04.688Z,55.78
2022-09-02T23:05:42.945Z,56.00
2022-09-02T23:10:51.905Z,56.64
2022-09-02T23:16:06.172Z,56.75
2022-09-02T23:21:19.429Z,56.81
2022-09-02T23:26:35.295Z,57.62
2022-09-02T23:31:52.972Z,58.04
2022-09-02T23:37:09.374Z,58.51
2022-09-02T23:42:13.772Z,59.01
2022-09-02T23:47:37.641Z,59.47
2022-09-02T23:52:56.093Z,59.45
2022-09-02T23:58:08.041Z,59.86
